Time;durP1;ratioP1;P1;durP2;ratioP2;P2;SDS_P1;SDS_P2;PMS_P1;PMS_P2;Temp;Humidity;BMP_temperature;BMP_pressure;BME280_temperature;BME280_humidity;BME280_pressure;Samples;Min_cycle;Max_cycle;Signal;HPM_P1;HPM_P2
2022/04/13 00:01:27;;;;;;;21.33;15.77;;;12.40;99.90;;;;;;5079097;28;20110;-42
2022/04/13 00:03:53;;;;;;;17.10;14.50;;;12.40;99.90;;;;;;5080241;28;20058;-42
2022/04/13 00:06:19;;;;;;;18.10;15.15;;;12.40;99.90;;;;;;5080292;28;20083;-42
2022/04/13 00:08:44;;;;;;;18.75;14.75;;;12.40;99.90;;;;;;5076993;28;20049;-41
2022/04/13 00:11:11;;;;;;;18.98;15.52;;;12.30;99.90;;;;;;5078504;28;20117;-42
2022/04/13 00:13:38;;;;;;;16.63;14.65;;;12.40;99.90;;;;;;5076777;28;20048;-41
2022/04/13 00:16:04;;;;;;;18.85;14.38;;;12.30;99.90;;;;;;5069557;28;20040;-42
2022/04/13 00:18:29;;;;;;;18.05;15.98;;;12.40;99.90;;;;;;5058822;28;20054;-42
2022/04/13 00:20:55;;;;;;;18.58;16.10;;;12.30;99.90;;;;;;5058902;28;20470;-41
2022/04/13 00:23:21;;;;;;;18.88;16.52;;;12.30;99.90;;;;;;5075633;28;20119;-41
2022/04/13 00:25:47;;;;;;;20.85;16.65;;;12.30;99.90;;;;;;5058018;28;20048;-42
2022/04/13 00:28:14;;;;;;;23.23;17.13;;;12.30;99.90;;;;;;5057606;28;20597;-41
2022/04/13 00:30:39;;;;;;;19.25;16.48;;;12.20;99.90;;;;;;5076628;28;20101;-42
2022/04/13 00:33:05;;;;;;;20.23;17.02;;;12.20;99.90;;;;;;5075106;28;20051;-41
2022/04/13 00:35:31;;;;;;;20.05;16.95;;;12.10;99.90;;;;;;5059503;28;20522;-43
2022/04/13 00:37:57;;;;;;;21.00;17.23;;;12.10;99.90;;;;;;5083096;28;20481;-41
2022/04/13 00:40:23;;;;;;;24.30;17.38;;;12.00;99.90;;;;;;5046804;28;20377;-41
2022/04/13 00:42:49;;;;;;;19.08;15.60;;;12.00;99.90;;;;;;5081666;28;20051;-42
2022/04/13 00:45:15;;;;;;;22.90;16.65;;;11.90;99.90;;;;;;5059961;28;20085;-41
2022/04/13 00:47:41;;;;;;;21.20;16.48;;;11.90;99.90;;;;;;5062278;28;20485;-41
2022/04/13 00:50:08;;;;;;;21.52;16.42;;;12.00;99.90;;;;;;5063163;28;20040;-42
2022/04/13 00:52:40;;;;;;;21.60;16.95;;;12.00;99.90;;;;;;5081421;28;20398;-42
2022/04/13 00:55:08;;;;;;;20.55;16.42;;;11.90;99.90;;;;;;5080695;28;20074;-42
2022/04/13 00:57:37;;;;;;;19.90;15.77;;;11.90;99.90;;;;;;5080733;28;20070;-42
2022/04/13 01:00:05;;;;;;;20.02;16.30;;;11.80;99.90;;;;;;5080598;28;20071;-41
2022/04/13 01:02:32;;;;;;;24.23;16.80;;;11.80;99.90;;;;;;5081202;28;20087;-43
2022/04/13 01:05:05;;;;;;;21.80;17.92;;;11.80;99.90;;;;;;5081387;28;20048;-40
2022/04/13 01:07:32;;;;;;;20.27;17.15;;;11.80;99.90;;;;;;5084717;28;20485;-41
2022/04/13 01:10:00;;;;;;;23.15;18.13;;;11.80;99.90;;;;;;5079857;28;20052;-40
2022/04/13 01:12:26;;;;;;;22.27;17.75;;;11.70;99.90;;;;;;5063699;28;20520;-41
2022/04/13 01:14:53;;;;;;;26.70;19.05;;;11.70;99.90;;;;;;5079420;28;20040;-41
2022/04/13 01:17:19;;;;;;;21.35;17.38;;;11.70;99.90;;;;;;5086027;28;20043;-42
2022/04/13 01:19:46;;;;;;;24.35;18.40;;;11.70;99.90;;;;;;5063533;28;20047;-43
2022/04/13 01:22:22;;;;;;;24.10;18.15;;;11.60;99.90;;;;;;5082572;28;20043;-44
2022/04/13 01:24:48;;;;;;;20.65;17.27;;;11.60;99.90;;;;;;5079399;28;20075;-42
2022/04/13 01:27:14;;;;;;;23.77;18.67;;;11.50;99.90;;;;;;5062114;28;20122;-42
2022/04/13 01:29:42;;;;;;;24.17;18.73;;;11.50;99.90;;;;;;5079398;28;20528;-41
2022/04/13 01:32:09;;;;;;;24.23;19.17;;;11.50;99.90;;;;;;5078730;28;20588;-42
2022/04/13 01:34:35;;;;;;;23.45;19.63;;;11.50;99.90;;;;;;5080804;28;20051;-41
2022/04/13 01:37:02;;;;;;;24.77;19.55;;;11.50;99.90;;;;;;5059351;28;20087;-41
2022/04/13 01:39:28;;;;;;;26.13;21.25;;;11.40;99.90;;;;;;5081123;28;20405;-41
2022/04/13 01:41:54;;;;;;;25.95;19.38;;;11.50;99.90;;;;;;5081471;28;20668;-41
2022/04/13 01:44:19;;;;;;;22.58;19.42;;;11.50;99.90;;;;;;5079914;28;20044;-42
2022/04/13 01:46:45;;;;;;;29.35;22.38;;;11.50;99.90;;;;;;5081026;28;20126;-41
2022/04/13 01:49:11;;;;;;;24.40;19.15;;;11.50;99.90;;;;;;5081112;28;20448;-42
2022/04/13 01:51:37;;;;;;;24.05;19.90;;;11.60;99.90;;;;;;5080992;28;20046;-42
2022/04/13 01:54:03;;;;;;;25.38;21.05;;;11.60;99.90;;;;;;5061331;28;20051;-41
2022/04/13 01:56:29;;;;;;;28.58;18.60;;;11.50;99.90;;;;;;5077441;28;20040;-41
2022/04/13 01:58:54;;;;;;;28.55;19.58;;;11.50;99.90;;;;;;5080682;28;20051;-42
2022/04/13 02:01:20;;;;;;;27.55;20.50;;;11.50;99.90;;;;;;5077820;28;20048;-42
2022/04/13 02:03:46;;;;;;;27.23;21.05;;;11.50;99.90;;;;;;5080602;28;20043;-41
2022/04/13 02:06:12;;;;;;;27.80;20.98;;;11.50;99.90;;;;;;5080529;28;20475;-42
2022/04/13 02:08:39;;;;;;;28.80;21.20;;;11.50;99.90;;;;;;5080883;28;20576;-42
2022/04/13 02:11:04;;;;;;;29.63;22.27;;;11.50;99.90;;;;;;5078177;28;20054;-41
2022/04/13 02:13:30;;;;;;;26.58;20.17;;;11.60;99.90;;;;;;5079833;28;20044;-45
2022/04/13 02:15:56;;;;;;;27.42;19.10;;;11.60;99.90;;;;;;5071703;28;20090;-41
2022/04/13 02:18:22;;;;;;;30.27;20.48;;;11.60;99.90;;;;;;5081054;28;20425;-41
2022/04/13 02:20:47;;;;;;;23.85;18.83;;;11.70;99.90;;;;;;5080882;28;20052;-41
2022/04/13 02:23:13;;;;;;;26.88;18.50;;;11.80;99.90;;;;;;5081742;28;20754;-41
2022/04/13 02:25:39;;;;;;;27.30;18.45;;;11.80;99.90;;;;;;5081542;28;20391;-41
2022/04/13 02:28:06;;;;;;;26.80;20.15;;;11.90;99.90;;;;;;5081314;28;20520;-41
2022/04/13 02:30:32;;;;;;;26.20;19.83;;;11.90;99.90;;;;;;5081691;28;20052;-40
2022/04/13 02:32:59;;;;;;;28.08;19.33;;;11.90;99.90;;;;;;5072335;28;20834;-41
2022/04/13 02:35:25;;;;;;;26.35;20.38;;;12.00;99.90;;;;;;5083131;28;20571;-47
2022/04/13 02:37:51;;;;;;;27.25;20.83;;;11.90;99.90;;;;;;5080525;28;20107;-43
2022/04/13 02:40:16;;;;;;;24.83;19.92;;;11.90;99.90;;;;;;5092325;28;20048;-41
2022/04/13 02:42:42;;;;;;;25.02;19.85;;;11.90;99.90;;;;;;5062534;28;20566;-41
2022/04/13 02:45:08;;;;;;;25.30;18.95;;;11.90;99.90;;;;;;5061215;28;20044;-42
2022/04/13 02:47:35;;;;;;;27.88;20.13;;;11.90;99.90;;;;;;5079620;28;20550;-42
2022/04/13 02:50:06;;;;;;;24.52;20.15;;;11.80;99.90;;;;;;5061271;28;20104;-41
2022/04/13 02:52:32;;;;;;;31.95;20.52;;;11.80;99.90;;;;;;5080383;28;20084;-41
2022/04/13 02:54:58;;;;;;;24.80;20.42;;;11.80;99.90;;;;;;5060565;28;20052;-41
2022/04/13 02:57:25;;;;;;;31.52;21.20;;;11.70;99.90;;;;;;5080290;28;20054;-41
2022/04/13 02:59:51;;;;;;;27.17;20.60;;;11.70;99.90;;;;;;5078851;28;20043;-42
2022/04/13 03:02:17;;;;;;;26.42;20.45;;;11.70;99.90;;;;;;5079452;28;20052;-41
2022/04/13 03:04:46;;;;;;;27.58;20.58;;;11.60;99.90;;;;;;5061022;28;20545;-41
2022/04/13 03:07:13;;;;;;;28.20;21.27;;;11.60;99.90;;;;;;5079951;28;20082;-41
2022/04/13 03:09:39;;;;;;;28.45;22.33;;;11.50;99.90;;;;;;5079697;28;20510;-41
2022/04/13 03:12:07;;;;;;;30.65;23.80;;;11.40;99.90;;;;;;5078426;28;20051;-41
2022/04/13 03:14:33;;;;;;;28.40;22.83;;;11.40;99.90;;;;;;5079199;28;20047;-41
2022/04/13 03:16:59;;;;;;;30.33;23.42;;;11.30;99.90;;;;;;5079281;28;20045;-41
2022/04/13 03:19:25;;;;;;;29.33;23.00;;;11.30;99.90;;;;;;5080756;28;20040;-41
2022/04/13 03:21:53;;;;;;;31.58;23.63;;;11.20;99.90;;;;;;5062595;28;20070;-41
2022/04/13 03:24:23;;;;;;;27.63;23.23;;;11.20;99.90;;;;;;5059809;28;20093;-41
2022/04/13 03:26:48;;;;;;;37.72;25.50;;;11.20;99.90;;;;;;5061413;28;20502;-41
2022/04/13 03:29:15;;;;;;;28.10;23.58;;;11.10;99.90;;;;;;5078533;28;20446;-42
2022/04/13 03:31:40;;;;;;;32.97;23.30;;;11.10;99.90;;;;;;5079100;28;20044;-41
2022/04/13 03:34:06;;;;;;;28.02;23.25;;;11.10;99.90;;;;;;5087987;28;20050;-43
2022/04/13 03:36:32;;;;;;;32.55;24.40;;;11.00;99.90;;;;;;5080419;28;20040;-41
2022/04/13 03:38:58;;;;;;;27.45;24.48;;;11.00;99.90;;;;;;5084037;28;20051;-41
2022/04/13 03:41:24;;;;;;;27.00;23.40;;;11.00;99.90;;;;;;5086783;28;20054;-41
2022/04/13 03:43:49;;;;;;;30.75;23.25;;;10.90;99.90;;;;;;5080334;28;20130;-43
2022/04/13 03:46:15;;;;;;;27.20;22.42;;;10.80;99.90;;;;;;5081358;28;20048;-42
2022/04/13 03:48:41;;;;;;;32.40;23.30;;;10.80;99.90;;;;;;5064383;28;20456;-40
2022/04/13 03:51:07;;;;;;;28.48;23.27;;;10.70;99.90;;;;;;5079821;28;20090;-41
2022/04/13 03:53:32;;;;;;;27.90;23.25;;;10.70;99.90;;;;;;5078489;28;20044;-42
2022/04/13 03:55:58;;;;;;;28.50;24.00;;;10.70;99.90;;;;;;5080251;28;20048;-41
2022/04/13 03:58:25;;;;;;;26.27;22.05;;;10.60;99.90;;;;;;5079217;28;20058;-41
2022/04/13 04:00:51;;;;;;;31.38;24.85;;;10.70;99.90;;;;;;5079272;28;20056;-40
2022/04/13 04:03:17;;;;;;;32.80;23.95;;;10.70;99.90;;;;;;5043097;28;20451;-40
2022/04/13 04:05:43;;;;;;;30.45;24.10;;;10.70;99.90;;;;;;5079432;28;20048;-41
2022/04/13 04:08:08;;;;;;;32.33;25.23;;;10.70;99.90;;;;;;5077650;28;20069;-41
2022/04/13 04:10:34;;;;;;;34.25;26.05;;;10.70;99.90;;;;;;5081079;28;20055;-41
2022/04/13 04:13:01;;;;;;;30.65;24.48;;;10.70;99.90;;;;;;5083042;28;20605;-41
2022/04/13 04:15:27;;;;;;;31.17;25.67;;;10.70;99.90;;;;;;5075691;28;20070;-41
2022/04/13 04:17:53;;;;;;;34.70;25.58;;;10.80;99.90;;;;;;5083967;28;20498;-41
2022/04/13 04:20:22;;;;;;;29.95;24.58;;;10.70;99.90;;;;;;5071875;28;20044;-41
2022/04/13 04:22:47;;;;;;;28.80;23.85;;;10.70;99.90;;;;;;5082161;28;20040;-42
2022/04/13 04:25:16;;;;;;;34.58;27.67;;;10.70;99.90;;;;;;5083426;28;20046;-40
2022/04/13 04:27:42;;;;;;;32.20;25.45;;;10.70;99.90;;;;;;5065528;28;20113;-41
2022/04/13 04:30:09;;;;;;;33.17;25.92;;;10.70;99.90;;;;;;5083578;28;20469;-41
2022/04/13 04:32:35;;;;;;;32.72;24.85;;;10.70;99.90;;;;;;5082702;28;20055;-42
2022/04/13 04:35:01;;;;;;;34.50;26.60;;;10.70;99.90;;;;;;5081603;28;20514;-42
2022/04/13 04:37:26;;;;;;;35.50;25.17;;;10.70;99.90;;;;;;5083132;28;20039;-41
2022/04/13 04:39:52;;;;;;;32.35;26.55;;;10.70;99.90;;;;;;5083393;28;20343;-41
2022/04/13 04:42:18;;;;;;;30.38;25.63;;;10.70;99.90;;;;;;5083239;28;20055;-41
2022/04/13 04:44:43;;;;;;;32.72;25.60;;;10.70;99.90;;;;;;5063436;28;20086;-40
2022/04/13 04:47:09;;;;;;;33.10;25.58;;;10.70;99.90;;;;;;5081201;28;20043;-41
2022/04/13 04:49:35;;;;;;;35.17;26.00;;;10.80;99.90;;;;;;5063613;28;20056;-41
2022/04/13 04:52:01;;;;;;;30.63;25.48;;;10.80;99.90;;;;;;5082466;28;20044;-40
2022/04/13 04:54:26;;;;;;;33.05;24.98;;;10.80;99.90;;;;;;5046289;28;20063;-41
2022/04/13 04:56:52;;;;;;;30.85;25.48;;;10.90;99.90;;;;;;5082721;28;20052;-41
2022/04/13 04:59:18;;;;;;;35.35;25.40;;;10.90;99.90;;;;;;5064703;28;20056;-41
2022/04/13 05:01:43;;;;;;;36.50;26.17;;;10.90;99.90;;;;;;5083925;28;20054;-42
2022/04/13 05:04:09;;;;;;;29.15;24.30;;;10.90;99.90;;;;;;5067783;28;20075;-41
2022/04/13 05:06:35;;;;;;;34.40;25.88;;;10.90;99.90;;;;;;5064305;28;20131;-41
2022/04/13 05:09:01;;;;;;;33.53;24.50;;;10.90;99.90;;;;;;5081918;28;20793;-41
2022/04/13 05:11:26;;;;;;;31.02;24.58;;;10.90;99.90;;;;;;5082091;28;20091;-41
2022/04/13 05:13:52;;;;;;;30.55;24.65;;;11.00;99.90;;;;;;5081326;28;20040;-40
2022/04/13 05:16:19;;;;;;;34.75;26.00;;;11.00;99.90;;;;;;5073953;28;20528;-41
2022/04/13 05:18:46;;;;;;;32.88;25.23;;;11.10;99.90;;;;;;5082330;28;20052;-42
2022/04/13 05:21:12;;;;;;;31.58;22.88;;;11.10;99.90;;;;;;5080923;28;20147;-40
2022/04/13 05:23:41;;;;;;;30.63;25.75;;;11.10;99.90;;;;;;5081576;28;20128;-41
2022/04/13 05:26:07;;;;;;;33.67;24.42;;;11.20;99.90;;;;;;5081051;28;20486;-41
2022/04/13 05:28:33;;;;;;;28.55;23.27;;;11.20;99.90;;;;;;5081006;28;20086;-41
2022/04/13 05:30:59;;;;;;;29.23;24.52;;;11.30;99.90;;;;;;5081292;28;20610;-40
2022/04/13 05:33:25;;;;;;;27.50;22.45;;;11.30;99.90;;;;;;5080675;28;20056;-41
2022/04/13 05:35:51;;;;;;;29.88;23.90;;;11.40;99.90;;;;;;5081890;28;20450;-41
2022/04/13 05:38:17;;;;;;;33.10;24.10;;;11.50;99.90;;;;;;5081724;28;20055;-42
2022/04/13 05:40:43;;;;;;;28.70;24.52;;;11.60;99.90;;;;;;5062533;28;20458;-43
2022/04/13 05:43:09;;;;;;;30.70;24.02;;;11.60;99.90;;;;;;5080843;28;20592;-40
2022/04/13 05:45:35;;;;;;;30.30;25.08;;;11.70;99.90;;;;;;5078035;28;20040;-41
2022/04/13 05:48:01;;;;;;;32.17;24.13;;;11.80;99.90;;;;;;5081496;28;20055;-41
2022/04/13 05:50:27;;;;;;;30.13;24.08;;;11.90;99.90;;;;;;5073762;28;20166;-42
2022/04/13 05:52:53;;;;;;;28.15;23.52;;;12.00;99.90;;;;;;5080318;28;20067;-41
2022/04/13 05:55:18;;;;;;;33.13;24.30;;;12.00;99.90;;;;;;5063380;28;20052;-41
2022/04/13 05:57:44;;;;;;;26.60;23.73;;;12.20;99.90;;;;;;5062242;28;20060;-41
2022/04/13 06:00:11;;;;;;;27.45;24.45;;;12.20;99.90;;;;;;5082190;28;20394;-41
2022/04/13 06:02:39;;;;;;;33.97;26.80;;;12.20;99.90;;;;;;5081072;28;20474;-42
2022/04/13 06:05:06;;;;;;;33.45;25.15;;;12.20;99.90;;;;;;5051216;28;20054;-41
2022/04/13 06:07:32;;;;;;;33.58;24.92;;;12.20;99.90;;;;;;5082903;28;20059;-41
2022/04/13 06:10:01;;;;;;;31.65;24.20;;;12.30;99.90;;;;;;5092152;28;20588;-41
2022/04/13 06:12:28;;;;;;;28.48;25.00;;;12.30;99.90;;;;;;5100155;28;20036;-41
2022/04/13 06:15:08;;;;;;;33.05;23.90;;;12.30;99.90;;;;;;5095059;28;20036;-42
2022/04/13 06:17:35;;;;;;;30.27;23.58;;;12.30;99.90;;;;;;5083579;28;20055;-41
2022/04/13 06:20:02;;;;;;;28.35;24.48;;;12.30;99.90;;;;;;5106124;28;20048;-41
2022/04/13 06:22:41;;;;;;;33.55;24.05;;;12.30;99.90;;;;;;5101790;28;20085;-41
2022/04/13 06:25:08;;;;;;;30.13;23.48;;;12.30;99.90;;;;;;5093022;28;20096;-41
2022/04/13 06:27:35;;;;;;;26.38;23.08;;;12.30;99.90;;;;;;5101330;28;20090;-42
2022/04/13 06:30:01;;;;;;;29.60;23.83;;;12.40;99.90;;;;;;5102453;28;20039;-41
2022/04/13 06:32:38;;;;;;;26.42;23.65;;;12.40;99.90;;;;;;5102002;28;20047;-42
2022/04/13 06:35:15;;;;;;;35.05;24.27;;;12.50;99.90;;;;;;5101159;28;20094;-41
2022/04/13 06:37:46;;;;;;;27.58;23.25;;;12.50;99.90;;;;;;5089002;28;20087;-41
2022/04/13 06:40:13;;;;;;;30.00;24.38;;;12.60;99.90;;;;;;5101441;28;20052;-42
2022/04/13 06:42:40;;;;;;;27.58;24.58;;;12.60;99.90;;;;;;5082957;28;20059;-41
2022/04/13 06:45:11;;;;;;;30.35;24.27;;;12.80;99.90;;;;;;5081914;28;20059;-41
2022/04/13 06:47:37;;;;;;;30.75;24.48;;;12.80;99.90;;;;;;5082323;28;20055;-43
2022/04/13 06:50:10;;;;;;;31.13;23.58;;;13.00;99.90;;;;;;5100627;28;20047;-43
2022/04/13 06:52:39;;;;;;;32.53;23.25;;;13.10;99.90;;;;;;5099763;28;20050;-42
2022/04/13 06:55:09;;;;;;;31.63;24.95;;;13.30;99.90;;;;;;5081319;28;20390;-44
2022/04/13 06:57:37;;;;;;;26.55;22.30;;;13.60;99.90;;;;;;5081809;28;20134;-41
2022/04/13 07:00:07;;;;;;;27.05;21.98;;;13.90;99.90;;;;;;5081625;28;20106;-42
2022/04/13 07:02:36;;;;;;;28.25;21.58;;;14.40;99.90;;;;;;5100013;28;20051;-41
2022/04/13 07:05:03;;;;;;;23.77;19.73;;;14.80;99.90;;;;;;5099624;28;20412;-42
2022/04/13 07:07:29;;;;;;;24.52;18.55;;;14.90;99.90;;;;;;5079695;28;20043;-41
2022/04/13 07:09:55;;;;;;;24.25;18.80;;;14.90;99.90;;;;;;5079743;28;20559;-43
2022/04/13 07:12:21;;;;;;;20.80;17.42;;;14.90;99.90;;;;;;5079421;28;20413;-42
2022/04/13 07:14:47;;;;;;;22.88;18.15;;;14.80;99.90;;;;;;5073001;28;20041;-41
2022/04/13 07:17:13;;;;;;;23.65;18.17;;;14.70;99.90;;;;;;5048339;28;20555;-41
2022/04/13 07:19:39;;;;;;;20.40;16.23;;;14.60;99.90;;;;;;5068703;28;20653;-42
2022/04/13 07:22:05;;;;;;;20.27;16.40;;;14.70;99.90;;;;;;5063991;28;20052;-43
2022/04/13 07:24:31;;;;;;;20.48;16.77;;;14.70;99.90;;;;;;5069701;28;20055;-42
2022/04/13 07:26:57;;;;;;;21.70;16.50;;;14.80;99.90;;;;;;5073458;28;20048;-41
2022/04/13 07:29:22;;;;;;;21.67;15.80;;;14.80;99.90;;;;;;5054453;28;20058;-42
2022/04/13 07:31:48;;;;;;;19.35;16.30;;;14.70;99.90;;;;;;5071882;28;20065;-41
2022/04/13 07:34:14;;;;;;;24.80;16.67;;;14.80;99.90;;;;;;5082664;28;20052;-42
2022/04/13 07:36:40;;;;;;;22.52;16.35;;;15.00;99.90;;;;;;5062601;28;20039;-41
2022/04/13 07:39:06;;;;;;;22.80;16.38;;;15.30;99.90;;;;;;5077447;28;20056;-45
2022/04/13 07:41:32;;;;;;;22.13;14.88;;;15.50;99.90;;;;;;5079180;28;20050;-42
2022/04/13 07:43:57;;;;;;;23.38;14.82;;;16.00;99.90;;;;;;5078762;28;20051;-42
2022/04/13 07:46:27;;;;;;;19.40;15.20;;;16.30;99.90;;;;;;5079503;28;20047;-43
2022/04/13 07:48:54;;;;;;;17.15;15.02;;;16.70;99.90;;;;;;5079210;28;20060;-42
2022/04/13 07:51:20;;;;;;;20.33;16.23;;;17.00;99.90;;;;;;5075266;28;20502;-42
2022/04/13 07:53:45;;;;;;;18.27;14.25;;;17.20;99.90;;;;;;5077161;28;20119;-42
2022/04/13 07:56:11;;;;;;;21.58;14.55;;;17.30;99.90;;;;;;5079136;28;20040;-42
2022/04/13 07:58:37;;;;;;;16.75;14.98;;;17.50;99.90;;;;;;5078588;28;20441;-42
2022/04/13 08:01:03;;;;;;;18.77;13.50;;;17.70;99.90;;;;;;5077817;28;20048;-42
2022/04/13 08:03:28;;;;;;;21.38;13.55;;;17.90;99.90;;;;;;5078169;28;20052;-42
2022/04/13 08:05:54;;;;;;;21.85;13.45;;;17.90;99.90;;;;;;5079827;28;20616;-43
2022/04/13 08:08:20;;;;;;;16.98;13.02;;;18.10;99.90;;;;;;5079165;28;20178;-42
2022/04/13 08:10:46;;;;;;;20.52;13.15;;;18.20;99.90;;;;;;5059601;28;20059;-43
2022/04/13 08:13:12;;;;;;;20.15;14.50;;;18.20;99.90;;;;;;5078877;28;20443;-44
2022/04/13 08:15:38;;;;;;;16.80;14.20;;;18.10;99.90;;;;;;5072591;28;20635;-44
2022/04/13 08:18:04;;;;;;;16.70;13.45;;;18.10;99.90;;;;;;5065638;28;20043;-44
2022/04/13 08:20:30;;;;;;;20.92;14.10;;;18.10;99.90;;;;;;5078718;28;20040;-42
2022/04/13 08:22:57;;;;;;;20.45;13.63;;;18.30;99.90;;;;;;5046137;28;20067;-42
2022/04/13 08:25:23;;;;;;;17.60;13.18;;;18.10;99.90;;;;;;5078768;28;20579;-43
2022/04/13 08:27:49;;;;;;;23.38;14.80;;;17.90;99.90;;;;;;5067020;28;20589;-45
2022/04/13 08:30:15;;;;;;;17.17;14.10;;;17.80;99.90;;;;;;5078509;28;20545;-42
2022/04/13 08:32:46;;;;;;;18.35;13.68;;;17.70;99.90;;;;;;5078150;28;20612;-43
2022/04/13 08:35:11;;;;;;;19.02;14.73;;;17.80;99.90;;;;;;5078326;28;20538;-42
2022/04/13 08:37:38;;;;;;;18.10;14.45;;;17.70;99.90;;;;;;5076055;28;20097;-43
2022/04/13 08:40:04;;;;;;;19.83;14.25;;;17.70;99.90;;;;;;5077471;28;20977;-42
2022/04/13 08:42:48;;;;;;;17.85;14.45;;;17.70;99.90;;;;;;5078361;28;20089;-44
2022/04/13 08:45:13;;;;;;;17.52;14.38;;;17.90;99.90;;;;;;5078532;28;20052;-42
2022/04/13 08:47:43;;;;;;;15.98;13.32;;;17.90;99.90;;;;;;5083718;28;20482;-45
2022/04/13 08:50:11;;;;;;;19.02;12.75;;;18.10;99.90;;;;;;5081587;28;20182;-43
2022/04/13 08:52:38;;;;;;;19.75;14.55;;;18.30;99.90;;;;;;5078523;28;20124;-50
2022/04/13 08:55:14;;;;;;;18.50;14.70;;;18.20;99.90;;;;;;5056332;28;20545;-42
2022/04/13 08:57:49;;;;;;;20.33;13.60;;;18.30;99.90;;;;;;5078716;28;20154;-42
2022/04/13 09:00:17;;;;;;;20.30;15.05;;;18.30;99.90;;;;;;5065264;28;20097;-43
2022/04/13 09:03:16;;;;;;;18.95;15.48;;;18.30;99.90;;;;;;5081125;28;20058;-44
2022/04/13 09:05:45;;;;;;;17.55;14.10;;;18.30;99.90;;;;;;5063517;28;20603;-43
2022/04/13 09:08:27;;;;;;;21.17;14.50;;;18.40;99.90;;;;;;5063011;28;20063;-42
2022/04/13 09:10:54;;;;;;;18.63;13.57;;;18.30;99.90;;;;;;5081694;28;20514;-42
2022/04/13 09:13:21;;;;;;;16.30;13.35;;;18.40;99.90;;;;;;5079850;28;20044;-43
2022/04/13 09:15:48;;;;;;;17.10;13.45;;;18.50;99.90;;;;;;5058638;28;20040;-45
2022/04/13 09:18:14;;;;;;;17.15;13.13;;;18.50;99.90;;;;;;5079278;28;20058;-43
2022/04/13 09:20:40;;;;;;;19.40;13.10;;;18.60;99.90;;;;;;5076869;28;20048;-43
2022/04/13 09:23:06;;;;;;;15.82;10.75;;;18.70;99.90;;;;;;5062315;28;20104;-45
2022/04/13 09:25:34;;;;;;;16.50;10.80;;;18.60;99.90;;;;;;5060893;28;20059;-42
2022/04/13 09:28:01;;;;;;;14.88;10.55;;;18.60;99.90;;;;;;5062141;28;20052;-43
2022/04/13 09:30:28;;;;;;;12.82;10.23;;;18.70;99.90;;;;;;5081629;28;20532;-43
2022/04/13 09:32:54;;;;;;;13.10;9.38;;;18.70;99.90;;;;;;5081486;28;20257;-42
2022/04/13 09:35:20;;;;;;;14.50;10.00;;;18.80;99.90;;;;;;5078863;28;20048;-42
2022/04/13 09:37:47;;;;;;;11.43;9.35;;;18.80;99.90;;;;;;5059952;28;20479;-43
2022/04/13 09:40:45;;;;;;;13.38;8.90;;;18.90;99.90;;;;;;5080188;28;20133;-43
2022/04/13 09:43:21;;;;;;;17.00;10.40;;;18.90;99.90;;;;;;4974089;28;20054;-44
2022/04/13 09:45:50;;;;;;;16.88;9.43;;;19.00;99.90;;;;;;4958635;28;20545;-44
2022/04/13 09:48:20;;;;;;;10.63;7.00;;;19.20;99.90;;;;;;4980819;28;20576;-42
2022/04/13 09:50:49;;;;;;;13.40;7.20;;;19.30;99.90;;;;;;4961663;28;20133;-43
2022/04/13 09:53:16;;;;;;;13.57;7.78;;;19.20;99.90;;;;;;4980109;28;20054;-44
2022/04/13 09:55:56;;;;;;;12.60;8.38;;;19.00;99.90;;;;;;4970464;28;20056;-44
2022/04/13 09:58:25;;;;;;;14.15;8.75;;;18.90;99.90;;;;;;4974682;28;20077;-45
2022/04/13 10:00:54;;;;;;;15.30;8.77;;;18.90;99.90;;;;;;4964287;28;20059;-44
2022/04/13 10:03:22;;;;;;;14.88;8.27;;;18.90;99.90;;;;;;4985986;28;20054;-43
2022/04/13 10:05:58;;;;;;;14.00;9.50;;;19.10;99.90;;;;;;4964900;28;20184;-44
2022/04/13 10:08:26;;;;;;;16.38;10.85;;;19.30;99.90;;;;;;4983040;28;20320;-44
2022/04/13 10:10:57;;;;;;;17.35;11.77;;;19.40;99.90;;;;;;4979816;28;20489;-43
2022/04/13 10:13:35;;;;;;;15.20;10.15;;;19.50;99.90;;;;;;4978810;28;20058;-44
2022/04/13 10:16:07;;;;;;;14.80;11.80;;;19.40;99.90;;;;;;4980329;28;20050;-43
2022/04/13 10:19:18;;;;;;;14.90;9.47;;;19.20;99.90;;;;;;5010624;28;20787;-45
2022/04/13 10:21:50;;;;;;;15.02;10.13;;;19.30;99.90;;;;;;5048962;28;20048;-45
2022/04/13 10:24:18;;;;;;;16.00;11.75;;;19.10;99.90;;;;;;5076870;28;20047;-44
2022/04/13 10:27:03;;;;;;;15.57;10.35;;;19.10;99.90;;;;;;5076912;28;20486;-43
2022/04/13 10:29:32;;;;;;;16.70;12.30;;;19.00;99.90;;;;;;5077535;28;20051;-43
2022/04/13 10:32:25;;;;;;;15.43;11.70;;;19.10;99.90;;;;;;5073359;28;20127;-45
2022/04/13 10:34:52;;;;;;;16.48;12.13;;;19.20;99.90;;;;;;5064734;28;20426;-42
2022/04/13 10:37:23;;;;;;;15.45;10.82;;;19.10;99.90;;;;;;5058985;28;20460;-44
2022/04/13 10:39:52;;;;;;;18.67;12.50;;;19.20;99.90;;;;;;5078807;28;20375;-46
2022/04/13 10:42:19;;;;;;;16.27;10.93;;;19.10;99.90;;;;;;5078879;28;20126;-44
2022/04/13 10:45:06;;;;;;;16.95;11.70;;;19.00;99.90;;;;;;5078263;28;20574;-43
2022/04/13 10:47:59;;;;;;;16.45;11.75;;;19.00;99.90;;;;;;5076057;28;20047;-44
2022/04/13 10:50:54;;;;;;;13.38;10.48;;;18.80;99.90;;;;;;4979525;28;20209;-44
2022/04/13 10:53:29;;;;;;;14.25;10.20;;;18.80;99.90;;;;;;4995371;28;20952;-43
2022/04/13 10:56:05;;;;;;;13.88;10.02;;;18.60;99.90;;;;;;4990592;28;20520;-43
2022/04/13 10:58:39;;;;;;;17.15;10.43;;;18.40;99.90;;;;;;4971754;28;20487;-44
2022/04/13 11:01:11;;;;;;;21.02;11.07;;;18.30;99.90;;;;;;4991372;28;20129;-44
2022/04/13 11:03:38;;;;;;;14.23;9.30;;;18.30;99.90;;;;;;4996233;28;20514;-43
2022/04/13 11:06:09;;;;;;;16.80;10.43;;;18.10;99.90;;;;;;4977048;28;20479;-43
2022/04/13 11:08:46;;;;;;;15.52;10.57;;;17.90;99.90;;;;;;4995651;28;20069;-42
2022/04/13 11:11:21;;;;;;;17.15;9.48;;;17.80;99.90;;;;;;4994977;28;20421;-44
2022/04/13 11:13:51;;;;;;;16.45;8.73;;;17.70;99.90;;;;;;4976569;28;20201;-43
2022/04/13 11:16:19;;;;;;;16.83;11.55;;;17.80;99.90;;;;;;4994442;28;20053;-42
2022/04/13 11:19:06;;;;;;;19.17;10.65;;;17.70;99.90;;;;;;4977830;28;20054;-44
2022/04/13 11:21:32;;;;;;;16.40;10.40;;;17.70;99.90;;;;;;4994755;28;20073;-42
2022/04/13 11:23:59;;;;;;;17.00;9.10;;;17.60;99.90;;;;;;4994420;28;20061;-46
2022/04/13 11:26:28;;;;;;;17.77;10.75;;;17.60;99.90;;;;;;4994962;28;20162;-43
2022/04/13 11:29:09;;;;;;;16.77;11.43;;;17.50;99.90;;;;;;5073507;28;20060;-43
2022/04/13 11:32:00;;;;;;;18.23;10.73;;;17.40;99.90;;;;;;5078900;28;20078;-42
2022/04/13 11:34:49;;;;;;;18.13;10.75;;;17.30;99.90;;;;;;5077670;28;20059;-48
2022/04/13 11:37:24;;;;;;;16.67;11.20;;;17.20;99.90;;;;;;5073259;28;20604;-43
2022/04/13 11:39:55;;;;;;;21.77;12.23;;;17.10;99.90;;;;;;5037817;28;20047;-44
2022/04/13 11:42:26;;;;;;;17.98;11.88;;;17.00;99.90;;;;;;5042423;28;20045;-43
2022/04/13 11:45:16;;;;;;;18.83;11.80;;;16.90;99.90;;;;;;5060805;28;20070;-43
2022/04/13 11:47:43;;;;;;;26.83;12.90;;;16.80;99.90;;;;;;5063635;28;20495;-42
2022/04/13 11:50:12;;;;;;;18.25;13.50;;;16.80;99.90;;;;;;5060883;28;20055;-43
2022/04/13 11:52:40;;;;;;;22.58;13.13;;;16.80;99.90;;;;;;5055759;28;20132;-42
2022/04/13 11:55:21;;;;;;;19.70;13.43;;;17.00;99.90;;;;;;5058525;28;20052;-43
2022/04/13 11:58:06;;;;;;;17.58;13.02;;;17.10;99.90;;;;;;5050978;28;20407;-42
2022/04/13 12:00:42;;;;;;;17.70;11.90;;;17.20;99.90;;;;;;5060940;28;20138;-43
2022/04/13 12:03:12;;;;;;;22.17;14.00;;;17.00;99.90;;;;;;5052348;28;20578;-43
2022/04/13 12:05:39;;;;;;;18.83;12.25;;;17.00;99.90;;;;;;5062435;28;20527;-44
2022/04/13 12:08:15;;;;;;;16.45;12.45;;;16.80;99.90;;;;;;5059886;28;20044;-48
2022/04/13 12:11:04;;;;;;;19.45;12.35;;;16.80;99.90;;;;;;5053250;28;20388;-46
2022/04/13 12:13:34;;;;;;;18.48;11.98;;;16.80;99.90;;;;;;5050983;28;20454;-42
2022/04/13 12:16:01;;;;;;;25.80;12.93;;;16.70;99.90;;;;;;5052854;28;20162;-45
2022/04/13 12:18:27;;;;;;;18.58;11.90;;;16.60;99.90;;;;;;5038958;28;20057;-44
2022/04/13 12:21:06;;;;;;;21.88;11.73;;;16.60;99.90;;;;;;5058475;28;20056;-43
2022/04/13 12:23:38;;;;;;;16.13;11.30;;;16.60;99.90;;;;;;5064459;28;20048;-42
2022/04/13 12:26:05;;;;;;;20.73;11.88;;;16.60;99.90;;;;;;5059054;28;20040;-44
2022/04/13 12:28:31;;;;;;;22.42;12.13;;;16.60;99.90;;;;;;5060354;28;20053;-42
2022/04/13 12:31:10;;;;;;;18.10;11.30;;;16.50;99.90;;;;;;5043112;28;20481;-42
2022/04/13 12:33:40;;;;;;;20.65;12.07;;;16.50;99.90;;;;;;5043500;28;20498;-44
2022/04/13 12:36:10;;;;;;;17.73;11.85;;;16.30;99.90;;;;;;5065197;28;20033;-51